Time;durP1;ratioP1;P1;durP2;ratioP2;P2;SDS_P1;SDS_P2;PMS_P1;PMS_P2;Temp;Humidity;BMP_temperature;BMP_pressure;BME280_temperature;BME280_humidity;BME280_pressure;Samples;Min_cycle;Max_cycle;Signal;HPM_P1;HPM_P2
2023/01/31 00:00:06;;;;;;;22.95;15.73;;;;;;;15.82;47.11;93354.44;4936596;28;20047;-89
2023/01/31 00:02:32;;;;;;;22.50;15.63;;;;;;;15.81;47.61;93350.22;4953050;28;20105;-89
2023/01/31 00:04:57;;;;;;;25.23;16.40;;;;;;;15.83;47.19;93370.28;4937045;28;20039;-87
2023/01/31 00:07:23;;;;;;;22.85;16.52;;;;;;;15.85;47.39;93356.91;4943629;28;20398;-87
2023/01/31 00:09:48;;;;;;;25.58;16.98;;;;;;;15.86;46.95;93365.84;4955978;28;20065;-88
2023/01/31 00:12:13;;;;;;;25.38;15.82;;;;;;;15.81;47.44;93374.75;4943527;28;20565;-87
2023/01/31 00:14:39;;;;;;;24.90;16.85;;;;;;;15.81;47.34;93372.75;4921072;28;20035;-89
2023/01/31 00:17:04;;;;;;;26.45;16.42;;;;;;;15.81;47.19;93361.13;4920224;28;20043;-88
2023/01/31 00:19:30;;;;;;;23.17;16.48;;;;;;;15.83;47.19;93367.56;4944469;28;20049;-88
2023/01/31 00:21:56;;;;;;;23.52;15.27;;;;;;;15.81;47.30;93361.84;4928555;29;20031;-88
2023/01/31 00:24:21;;;;;;;37.13;22.98;;;;;;;15.84;47.94;93371.03;4916796;29;20050;-89
2023/01/31 00:26:47;;;;;;;21.17;14.88;;;;;;;15.82;47.50;93370.78;4933208;29;20043;-88
2023/01/31 00:29:13;;;;;;;37.72;27.70;;;;;;;15.94;48.91;93381.22;4916544;28;20469;-89
2023/01/31 00:31:38;;;;;;;28.92;20.35;;;;;;;15.87;47.98;93378.22;4926602;28;20041;-89
2023/01/31 00:34:04;;;;;;;25.83;16.52;;;;;;;15.84;47.21;93377.22;4935640;28;20035;-88
2023/01/31 00:36:31;;;;;;;30.88;19.05;;;;;;;15.91;47.86;93387.66;4951989;28;20055;-89
2023/01/31 00:38:58;;;;;;;21.70;13.82;;;;;;;15.86;47.13;93382.19;4936158;28;20038;-89
2023/01/31 00:41:24;;;;;;;28.08;17.65;;;;;;;15.88;47.58;93385.16;4951722;28;20445;-89
2023/01/31 00:43:49;;;;;;;24.23;15.38;;;;;;;15.84;46.99;93377.22;4916511;29;20484;-87
2023/01/31 00:46:15;;;;;;;22.13;14.80;;;;;;;15.78;47.69;93379.22;4935083;28;20039;-87
2023/01/31 00:48:40;;;;;;;21.67;14.73;;;;;;;15.80;47.14;93386.91;4951827;28;20100;-88
2023/01/31 00:51:06;;;;;;;26.80;17.70;;;;;;;15.84;47.63;93376.50;4935178;28;20122;-89
2023/01/31 00:53:31;;;;;;;22.75;14.95;;;;;;;15.81;47.52;93369.28;4952597;28;20050;-89
2023/01/31 00:56:03;;;;;;;29.23;18.70;;;;;;;15.86;47.49;93372.03;4935659;28;20517;-88
2023/01/31 00:58:29;;;;;;;22.73;15.48;;;;;;;15.85;47.73;93365.09;4935759;28;20031;-89
2023/01/31 01:00:55;;;;;;;21.75;15.80;;;;;;;15.80;47.76;93371.31;4919542;28;20066;-88
2023/01/31 01:03:20;;;;;;;25.20;15.05;;;;;;;15.80;47.59;93381.47;4935568;28;20043;-89
2023/01/31 01:05:45;;;;;;;22.08;15.15;;;;;;;15.82;47.77;93382.44;4936103;28;20034;-87
2023/01/31 01:08:11;;;;;;;22.45;14.70;;;;;;;15.80;47.15;93384.94;4930987;28;20485;-90
2023/01/31 01:10:36;;;;;;;23.27;16.55;;;;;;;15.86;48.38;93371.28;4938845;28;20030;-87
2023/01/31 01:13:04;;;;;;;21.23;14.55;;;;;;;15.81;47.42;93374.75;4948176;28;20043;-89
2023/01/31 01:15:29;;;;;;;19.73;15.18;;;;;;;15.79;47.52;93383.44;4935689;28;20541;-88
2023/01/31 01:17:55;;;;;;;22.73;15.45;;;;;;;15.84;48.39;93381.94;4952190;28;20042;-88
2023/01/31 01:20:20;;;;;;;20.58;13.75;;;;;;;15.81;47.13;93380.19;4931438;28;20047;-87
2023/01/31 01:22:46;;;;;;;20.58;13.90;;;;;;;15.79;47.23;93379.97;4904495;28;20055;-89
2023/01/31 01:25:11;;;;;;;23.92;15.25;;;;;;;15.76;47.54;93382.44;4946827;29;20097;-87
2023/01/31 01:27:36;;;;;;;17.27;14.00;;;;;;;15.76;47.62;93381.69;4931624;29;20454;-88
2023/01/31 01:30:03;;;;;;;22.10;14.55;;;;;;;15.78;47.64;93368.31;4915038;29;20055;-87
2023/01/31 01:32:29;;;;;;;45.15;28.52;;;;;;;15.86;49.33;93377.47;4914272;29;20701;-88
2023/01/31 01:34:54;;;;;;;20.45;13.73;;;;;;;15.80;47.25;93376.75;4915055;29;20191;-88
2023/01/31 01:37:20;;;;;;;24.95;15.68;;;;;;;15.84;47.72;93388.13;4915070;28;20039;-87
2023/01/31 01:39:46;;;;;;;24.90;17.00;;;;;;;15.82;47.65;93387.88;4915037;29;20047;-89
2023/01/31 01:42:16;;;;;;;20.95;14.07;;;;;;;15.79;47.67;93396.31;4946420;28;20046;-87
2023/01/31 01:44:51;;;;;;;36.22;22.95;;;;;;;15.80;47.67;93387.66;4928245;28;20486;-89
2023/01/31 01:47:34;;;;;;;24.50;15.18;;;;;;;15.81;48.26;93388.38;4935222;28;20039;-88
2023/01/31 01:50:06;;;;;;;24.10;14.82;;;;;;;15.77;47.78;93394.09;4964730;28;20518;-86
2023/01/31 01:52:35;;;;;;;21.42;14.85;;;;;;;15.83;47.74;93397.56;4934225;29;20054;-88
2023/01/31 01:55:05;;;;;;;18.13;12.82;;;;;;;15.80;47.48;93395.09;4950344;28;20043;-89
2023/01/31 01:57:33;;;;;;;18.00;13.05;;;;;;;15.83;47.74;93386.66;4924025;28;20031;-87
2023/01/31 02:00:03;;;;;;;27.35;18.38;;;;;;;15.85;48.05;93400.53;4923177;28;20038;-88
2023/01/31 02:02:28;;;;;;;21.50;13.82;;;;;;;15.82;47.77;93395.31;4987803;28;20497;-89
2023/01/31 02:04:54;;;;;;;37.65;26.40;;;;;;;15.92;48.41;93385.66;4945352;28;20050;-89
2023/01/31 02:07:19;;;;;;;38.80;24.02;;;;;;;15.86;48.45;93393.09;4937685;28;20039;-87
2023/01/31 02:09:52;;;;;;;24.35;14.95;;;;;;;15.80;47.41;93408.72;4938934;28;20501;-88
2023/01/31 02:12:18;;;;;;;20.83;13.60;;;;;;;15.76;48.22;93398.06;4904035;28;20142;-88
2023/01/31 02:14:43;;;;;;;37.47;24.27;;;;;;;15.84;48.46;93395.56;4929187;28;20031;-87
2023/01/31 02:17:14;;;;;;;25.20;13.63;;;;;;;15.79;47.93;93388.16;4940796;28;20046;-88
2023/01/31 02:19:50;;;;;;;20.60;13.25;;;;;;;15.80;47.53;93398.56;4973412;28;20034;-86
2023/01/31 02:22:35;;;;;;;25.38;14.77;;;;;;;15.79;47.40;93401.78;4937905;28;20043;-89
2023/01/31 02:25:21;;;;;;;18.75;13.38;;;;;;;15.76;47.35;93393.34;4957337;28;20071;-87
2023/01/31 02:27:51;;;;;;;28.65;19.40;;;;;;;15.87;48.22;93405.47;4954557;28;20062;-89
2023/01/31 02:30:24;;;;;;;;;;;;;;;15.82;47.34;93408.94;4938518;28;20054;-89
2023/01/31 02:33:01;;;;;;;20.67;13.63;;;;;;;15.75;47.51;93394.59;4932165;29;19922;-88
2023/01/31 02:35:43;;;;;;;19.50;12.57;;;;;;;15.76;47.44;93411.69;4952539;28;21015;-87
2023/01/31 02:38:36;;;;;;;20.02;12.98;;;;;;;15.77;47.63;93413.16;4904055;29;20035;-89
2023/01/31 02:41:24;;;;;;;30.83;19.85;;;;;;;15.86;48.44;93395.81;4952510;28;20051;-87
2023/01/31 02:46:49;;;;;;;;;;;;;;;15.83;47.47;93410.44;4951476;28;20120;-88
2023/01/31 02:49:34;;;;;;;23.25;16.20;;;;;;;15.76;47.68;93412.44;4953760;28;20377;-87
2023/01/31 02:52:16;;;;;;;18.90;12.27;;;;;;;15.76;47.65;93406.22;4940169;28;20050;-90
2023/01/31 02:57:44;;;;;;;20.33;13.98;;;;;;;15.71;48.05;93413.16;4938492;29;20046;-88
2023/01/31 03:00:10;;;;;;;20.95;12.95;;;;;;;15.72;47.86;93419.34;4901965;28;20043;-88
2023/01/31 03:02:35;;;;;;;20.38;14.18;;;;;;;15.71;48.09;93428.75;4899450;29;20040;-89
2023/01/31 03:05:01;;;;;;;25.58;17.00;;;;;;;15.77;48.22;93432.25;4887456;29;20066;-88
2023/01/31 03:07:28;;;;;;;18.50;12.30;;;;;;;15.71;47.79;93431.47;4934896;29;20062;-88
2023/01/31 03:10:14;;;;;;;18.10;12.02;;;;;;;15.75;47.79;93432.00;4934699;29;20578;-89
2023/01/31 03:12:51;;;;;;;24.33;15.65;;;;;;;15.80;48.62;93434.00;4918590;29;20566;-88
2023/01/31 03:15:19;;;;;;;23.17;13.55;;;;;;;15.75;47.62;93442.91;4937683;28;20043;-89
2023/01/31 03:18:04;;;;;;;31.98;22.27;;;;;;;15.76;48.11;93453.31;4937865;28;20038;-89
2023/01/31 03:20:37;;;;;;;35.20;21.90;;;;;;;15.80;48.33;93457.78;4946986;28;20038;-90
2023/01/31 03:23:22;;;;;;;20.58;13.32;;;;;;;15.80;47.90;93463.22;4937303;28;20042;-88
2023/01/31 03:25:48;;;;;;;16.33;12.30;;;;;;;15.76;47.68;93466.94;4917328;29;20090;-88
2023/01/31 03:28:21;;;;;;;18.13;11.80;;;;;;;15.81;47.53;93461.97;4902821;28;20403;-89
2023/01/31 03:31:07;;;;;;;23.38;15.02;;;;;;;15.78;47.73;93471.91;4902470;29;20031;-88
2023/01/31 03:33:37;;;;;;;20.20;13.27;;;;;;;15.76;47.41;93475.13;4919476;29;20415;-90
2023/01/31 03:36:05;;;;;;;17.77;12.77;;;;;;;15.80;48.37;93477.59;4916798;29;20059;-87
2023/01/31 03:38:34;;;;;;;19.02;12.10;;;;;;;15.79;47.61;93469.91;4934069;29;20562;-89
2023/01/31 03:41:05;;;;;;;18.90;12.52;;;;;;;15.80;47.59;93471.41;4918080;29;20046;-87
2023/01/31 03:43:32;;;;;;;;;;;;;;;15.83;47.81;93479.31;4934091;29;20039;-89
2023/01/31 03:46:03;;;;;;;21.70;14.75;;;;;;;15.81;47.85;93473.63;4932983;29;20418;-89
2023/01/31 03:48:31;;;;;;;17.42;12.18;;;;;;;15.77;47.77;93459.50;4917809;29;20051;-87
2023/01/31 03:50:58;;;;;;;21.05;13.57;;;;;;;15.81;47.41;93456.50;4915827;29;20084;-87
2023/01/31 03:53:23;;;;;;;16.58;12.32;;;;;;;15.75;47.16;93465.44;4913916;29;20494;-88
2023/01/31 03:55:55;;;;;;;35.15;22.90;;;;;;;15.80;48.09;93465.97;4934049;28;20039;-88
2023/01/31 03:58:22;;;;;;;19.05;12.90;;;;;;;15.75;47.61;93472.88;4917933;29;20383;-88
2023/01/31 04:00:48;;;;;;;18.27;12.35;;;;;;;15.74;47.36;93465.94;4919625;28;20080;-88
2023/01/31 04:03:17;;;;;;;41.17;25.92;;;;;;;15.89;49.67;93485.53;4951989;28;20109;-90
2023/01/31 04:05:42;;;;;;;18.85;12.52;;;;;;;15.85;48.92;93485.03;4921336;28;20069;-86
2023/01/31 04:08:07;;;;;;;21.30;14.52;;;;;;;15.82;48.11;93483.28;4949887;28;20043;-87
2023/01/31 04:10:33;;;;;;;17.10;12.32;;;;;;;15.79;47.43;93489.75;4917824;29;20047;-89
2023/01/31 04:13:00;;;;;;;20.50;12.15;;;;;;;15.76;47.87;93477.09;4913808;29;20507;-90
2023/01/31 04:15:25;;;;;;;18.55;12.57;;;;;;;15.75;47.57;93484.53;4898879;29;20119;-87
2023/01/31 04:17:51;;;;;;;18.63;12.73;;;;;;;15.77;47.77;93489.47;4916742;29;20040;-89
2023/01/31 04:20:16;;;;;;;38.50;25.77;;;;;;;15.86;48.81;93494.69;4932292;28;20039;-88
2023/01/31 04:22:41;;;;;;;28.08;20.63;;;;;;;15.85;48.95;93493.22;4949585;28;20114;-88
2023/01/31 04:25:07;;;;;;;19.80;13.50;;;;;;;15.75;47.83;93483.78;4952388;28;20043;-89
2023/01/31 04:27:32;;;;;;;19.70;12.45;;;;;;;15.85;48.29;93501.38;4951825;28;20039;-89
2023/01/31 04:29:58;;;;;;;21.65;14.43;;;;;;;15.82;47.52;93501.63;4936727;28;20046;-87
2023/01/31 04:32:24;;;;;;;18.83;12.70;;;;;;;15.81;47.99;93509.03;4947376;28;20061;-88
2023/01/31 04:34:49;;;;;;;16.52;12.13;;;;;;;15.74;47.95;93520.44;4917061;29;20039;-89
2023/01/31 04:37:15;;;;;;;17.73;11.63;;;;;;;15.77;47.83;93519.47;4916949;28;20046;-88
2023/01/31 04:39:40;;;;;;;22.80;14.68;;;;;;;15.83;48.25;93514.75;4917263;29;20035;-88
2023/01/31 04:42:06;;;;;;;19.20;13.15;;;;;;;15.78;47.69;93518.22;4916423;28;20051;-87
2023/01/31 04:44:31;;;;;;;19.48;12.07;;;;;;;15.75;47.98;93525.41;4932560;29;20039;-89
2023/01/31 04:46:57;;;;;;;19.77;13.20;;;;;;;15.80;47.93;93523.94;4915744;28;20050;-88
2023/01/31 04:49:22;;;;;;;37.30;23.88;;;;;;;15.85;48.78;93531.38;4951659;28;20047;-88
2023/01/31 04:51:48;;;;;;;27.95;19.88;;;;;;;15.86;48.27;93537.56;4935457;28;20416;-87
2023/01/31 04:54:13;;;;;;;18.02;12.27;;;;;;;15.79;47.95;93535.34;4951511;28;20046;-87
2023/01/31 04:56:38;;;;;;;20.60;12.77;;;;;;;15.73;47.66;93546.19;4946134;28;20106;-88
2023/01/31 04:59:04;;;;;;;17.48;13.02;;;;;;;15.77;47.96;93546.72;4913310;29;20043;-88
2023/01/31 05:01:29;;;;;;;22.08;14.13;;;;;;;15.73;47.90;93544.22;4887320;29;20039;-88
2023/01/31 05:03:55;;;;;;;19.42;12.43;;;;;;;15.73;48.02;93557.84;4916983;29;20080;-89
2023/01/31 05:06:21;;;;;;;19.20;12.02;;;;;;;15.77;47.88;93557.63;4913115;28;20122;-87
2023/01/31 05:08:47;;;;;;;24.70;15.52;;;;;;;15.77;47.90;93569.28;4926187;28;20116;-87
2023/01/31 05:11:12;;;;;;;15.98;11.13;;;;;;;15.74;47.72;93562.06;4934599;28;20062;-88
2023/01/31 05:13:38;;;;;;;19.02;13.57;;;;;;;15.74;48.05;93556.63;4932580;29;20426;-87
2023/01/31 05:16:07;;;;;;;25.77;15.80;;;;;;;15.80;48.08;93572.25;4916415;28;20415;-88
2023/01/31 05:18:34;;;;;;;18.23;11.45;;;;;;;15.72;47.72;93575.44;4923543;28;20039;-87
2023/01/31 05:20:59;;;;;;;18.88;12.32;;;;;;;15.78;47.82;93572.75;4915974;28;20031;-86
2023/01/31 05:23:24;;;;;;;42.85;28.55;;;;;;;15.82;48.92;93592.31;4933737;28;20529;-87
2023/01/31 05:25:50;;;;;;;40.03;26.35;;;;;;;15.88;49.16;93581.44;4942240;28;20039;-89
2023/01/31 05:28:15;;;;;;;36.38;23.40;;;;;;;15.91;49.22;93583.19;4935345;28;20045;-87
2023/01/31 05:30:41;;;;;;;18.40;13.43;;;;;;;15.74;47.43;93574.94;4938778;28;20039;-87
2023/01/31 05:33:06;;;;;;;438.67;345.10;;;;;;;15.79;48.28;93584.41;4939109;28;20695;-87
2023/01/31 05:35:32;;;;;;;41.55;26.92;;;;;;;15.90;48.73;93582.44;4980766;28;20146;-90
2023/01/31 05:37:58;;;;;;;90.55;41.67;;;;;;;15.92;47.89;93604.50;4924296;28;20054;-90
2023/01/31 05:40:23;;;;;;;156.30;76.38;;;;;;;15.94;47.98;93607.50;4939213;28;20042;-89
2023/01/31 05:42:56;;;;;;;41.55;22.35;;;;;;;16.02;48.19;93603.03;4936502;28;20657;-87
2023/01/31 05:45:21;;;;;;;45.53;26.10;;;;;;;16.10;48.69;93616.97;4931011;28;20053;-88
2023/01/31 05:47:47;;;;;;;35.13;20.20;;;;;;;16.02;47.60;93596.88;4958957;28;20460;-88
2023/01/31 05:50:12;;;;;;;63.55;27.70;;;;;;;15.97;48.05;93606.53;4955598;28;20061;-90
2023/01/31 05:52:38;;;;;;;33.33;19.38;;;;;;;15.91;47.63;93597.56;4944026;28;20069;-91
2023/01/31 05:55:04;;;;;;;35.50;19.60;;;;;;;15.89;47.60;93597.31;4939972;28;20083;-86
2023/01/31 05:57:29;;;;;;;69.93;24.73;;;;;;;15.94;47.58;93588.41;4931564;28;20038;-91
2023/01/31 05:59:55;;;;;;;58.38;23.90;;;;;;;15.94;47.96;93602.03;4920899;28;20501;-91
2023/01/31 06:02:20;;;;;;;114.32;30.80;;;;;;;15.88;44.51;93595.81;4920211;28;20070;-91
2023/01/31 06:04:46;;;;;;;90.88;37.25;;;;;;;15.59;41.44;93599.63;4919102;28;20035;-89
2023/01/31 06:07:14;;;;;;;417.20;221.57;;;;;;;15.53;42.33;93601.56;4925291;28;20051;-91
2023/01/31 06:09:40;;;;;;;437.30;232.68;;;;;;;15.62;43.23;93606.09;4927103;29;20046;-89
2023/01/31 06:12:08;;;;;;;171.10;65.90;;;;;;;15.65;43.09;93596.94;4934216;28;20050;-89
2023/01/31 06:14:34;;;;;;;195.18;86.18;;;;;;;15.67;45.45;93610.84;4920289;28;20043;-88
2023/01/31 06:17:03;;;;;;;212.73;97.60;;;;;;;15.72;46.10;93604.66;4948506;28;20046;-91
2023/01/31 06:19:28;;;;;;;237.57;107.35;;;;;;;15.88;46.04;93625.81;4923119;28;20043;-91
2023/01/31 06:21:53;;;;;;;190.90;95.05;;;;;;;15.77;46.40;93625.75;4943961;28;20532;-90
2023/01/31 06:24:19;;;;;;;180.48;85.40;;;;;;;15.71;45.42;93620.28;4934152;28;20039;-90
2023/01/31 06:26:44;;;;;;;213.77;100.53;;;;;;;15.83;46.62;93620.31;4917002;28;20045;-87
2023/01/31 06:29:10;;;;;;;245.27;111.20;;;;;;;15.80;46.68;93629.50;4939270;28;20053;-90
2023/01/31 06:31:35;;;;;;;232.23;110.28;;;;;;;15.83;46.58;93618.34;4947438;28;20577;-90
2023/01/31 06:34:02;;;;;;;248.88;117.03;;;;;;;15.83;46.52;93636.66;4946543;28;20103;-90
2023/01/31 06:36:27;;;;;;;233.30;120.80;;;;;;;15.82;46.59;93635.94;4950475;28;20138;-88
2023/01/31 06:38:54;;;;;;;220.60;114.43;;;;;;;15.98;47.43;93643.47;4954781;28;20054;-92
2023/01/31 06:41:39;;;;;;;233.23;123.45;;;;;;;15.87;46.40;93637.19;4937878;28;20078;-92
2023/01/31 06:44:25;;;;;;;242.70;119.72;;;;;;;15.89;47.17;93635.47;4974750;28;20038;-91
2023/01/31 06:47:01;;;;;;;222.98;117.00;;;;;;;15.90;46.41;93644.41;4915426;29;20044;-92
2023/01/31 06:49:29;;;;;;;235.30;123.53;;;;;;;15.89;46.28;93657.28;4820945;29;20044;-93
2023/01/31 06:51:54;;;;;;;223.88;114.13;;;;;;;15.90;47.06;93649.84;4888134;29;20048;-91
2023/01/31 06:54:40;;;;;;;225.95;118.28;;;;;;;15.95;46.17;93649.88;4849131;29;20115;-94
2023/01/31 06:57:06;;;;;;;240.13;120.80;;;;;;;15.92;46.53;93661.00;4828709;29;20104;-91
2023/01/31 06:59:31;;;;;;;266.23;136.63;;;;;;;16.04;47.31;93668.75;4862050;29;20598;-91
2023/01/31 07:01:57;;;;;;;307.20;183.45;;;;;;;16.01;46.53;93680.66;4886437;29;20056;-89
2023/01/31 07:04:22;;;;;;;288.83;162.98;;;;;;;16.05;46.76;93675.69;4875078;29;20071;-90
2023/01/31 07:06:48;;;;;;;315.30;183.18;;;;;;;16.11;46.79;93679.19;4871053;29;20122;-90
2023/01/31 07:09:14;;;;;;;321.35;182.65;;;;;;;16.05;46.31;93686.59;4874566;29;20556;-92
2023/01/31 07:11:40;;;;;;;270.40;160.85;;;;;;;16.08;46.87;93685.63;4878927;29;20117;-88
2023/01/31 07:14:09;;;;;;;287.15;166.85;;;;;;;16.02;46.30;93690.31;4879944;29;20052;-91
2023/01/31 07:16:37;;;;;;;270.50;150.60;;;;;;;16.07;46.58;93699.75;4908228;29;20062;-92
2023/01/31 07:19:14;;;;;;;267.05;151.40;;;;;;;16.03;46.46;93691.06;4862996;29;20045;-89
2023/01/31 07:21:41;;;;;;;299.55;161.00;;;;;;;16.10;46.88;93687.88;4834294;29;20061;-91
2023/01/31 07:24:07;;;;;;;272.77;148.13;;;;;;;16.06;46.61;93690.06;4861275;29;20049;-91
2023/01/31 07:26:38;;;;;;;326.50;154.10;;;;;;;16.04;46.46;93682.38;4881053;29;20056;-91
2023/01/31 07:29:04;;;;;;;294.70;149.00;;;;;;;16.10;46.76;93680.44;4897128;29;20200;-91
2023/01/31 07:31:31;;;;;;;285.85;159.52;;;;;;;16.10;46.45;93687.88;4924608;29;20044;-92
2023/01/31 07:33:57;;;;;;;317.40;161.32;;;;;;;16.05;46.68;93694.78;4951132;23;20055;-91
2023/01/31 07:36:25;;;;;;;270.92;149.93;;;;;;;16.17;46.31;93692.88;4932427;28;20075;-91
2023/01/31 07:39:00;;;;;;;316.23;165.63;;;;;;;16.14;46.67;93695.81;4936712;28;20035;-92
2023/01/31 07:41:26;;;;;;;309.23;164.38;;;;;;;16.13;46.33;93697.06;4956305;28;20045;-90
2023/01/31 07:44:07;;;;;;;464.75;255.95;;;;;;;16.10;46.52;93710.44;4951005;28;20043;-91
2023/01/31 07:46:34;;;;;;;455.13;259.10;;;;;;;16.10;46.43;93713.16;4952439;28;20043;-89
2023/01/31 07:48:59;;;;;;;395.15;223.75;;;;;;;16.20;46.43;93721.91;4932507;28;20124;-91
2023/01/31 07:51:25;;;;;;;414.45;236.20;;;;;;;16.20;46.23;93716.44;4949147;28;20043;-90
2023/01/31 07:53:50;;;;;;;399.27;221.68;;;;;;;16.16;46.53;93726.09;4923905;28;20054;-87
2023/01/31 07:56:18;;;;;;;425.85;249.30;;;;;;;16.15;46.64;93727.31;4943385;28;20049;-89
2023/01/31 07:58:44;;;;;;;409.08;238.55;;;;;;;16.12;46.69;93729.03;4928445;28;20122;-90
2023/01/31 08:04:00;;;;;;;457.80;238.07;;;;;;;16.14;46.84;93721.13;4946772;28;20106;-88
2023/01/31 08:06:28;;;;;;;394.70;231.65;;;;;;;16.13;46.84;93733.25;4922317;28;20043;-88
2023/01/31 08:08:53;;;;;;;409.95;226.38;;;;;;;16.07;46.76;93724.28;4938684;28;20689;-88
2023/01/31 08:11:20;;;;;;;398.42;223.10;;;;;;;16.07;47.04;93727.78;4920643;28;20080;-89
2023/01/31 08:13:45;;;;;;;373.35;211.55;;;;;;;16.06;46.75;93728.25;4951608;28;20463;-89
2023/01/31 08:16:11;;;;;;;371.75;209.52;;;;;;;16.11;46.87;93738.47;4942054;28;20063;-89
2023/01/31 08:18:36;;;;;;;416.30;206.20;;;;;;;16.21;47.08;93739.00;4924940;28;20047;-88
2023/01/31 08:21:03;;;;;;;412.08;210.07;;;;;;;16.19;46.89;93738.75;4923020;28;20039;-90
2023/01/31 08:23:29;;;;;;;378.20;210.40;;;;;;;16.16;46.88;93742.44;4940461;28;20168;-88
2023/01/31 08:26:00;;;;;;;376.25;195.65;;;;;;;16.13;46.83;93736.00;4938857;28;20051;-89
2023/01/31 08:28:25;;;;;;;;;;;;;;;16.18;46.44;93732.56;4952522;28;20524;-89
2023/01/31 08:30:52;;;;;;;348.42;183.95;;;;;;;16.20;46.48;93735.53;4961793;28;19918;-88
2023/01/31 08:33:17;;;;;;;348.95;186.23;;;;;;;16.16;46.72;93731.53;4928474;29;20084;-89
2023/01/31 08:35:43;;;;;;;380.95;186.82;;;;;;;16.09;46.59;93727.28;4928580;29;20051;-89
2023/01/31 08:38:08;;;;;;;405.65;195.38;;;;;;;16.14;47.03;93745.66;4914917;28;20043;-88
2023/01/31 08:40:34;;;;;;;391.20;209.32;;;;;;;16.08;47.17;93742.91;4915396;29;20067;-89
2023/01/31 08:42:59;;;;;;;415.83;201.65;;;;;;;16.14;46.96;93745.66;4909050;29;20044;-91
2023/01/31 08:45:25;;;;;;;384.15;187.95;;;;;;;16.08;46.94;93748.34;4925050;29;20043;-90
2023/01/31 08:47:55;;;;;;;338.73;179.95;;;;;;;16.14;46.90;93742.19;4930559;29;20084;-89
2023/01/31 08:50:21;;;;;;;352.40;182.73;;;;;;;16.13;46.99;93748.88;4896706;29;20055;-89
2023/01/31 08:52:50;;;;;;;324.08;164.05;;;;;;;16.22;46.54;93749.44;4913368;29;20047;-86
2023/01/31 08:55:18;;;;;;;296.15;152.25;;;;;;;16.19;46.41;93755.88;4903287;28;20035;-89
2023/01/31 08:57:44;;;;;;;356.27;168.52;;;;;;;16.18;46.91;93762.56;4903492;28;20134;-89
2023/01/31 09:00:10;;;;;;;315.33;154.05;;;;;;;16.19;46.97;93763.31;4901220;29;20039;-89
2023/01/31 09:02:36;;;;;;;328.92;155.95;;;;;;;16.16;46.97;93762.28;4916853;29;20055;-89
2023/01/31 09:05:02;;;;;;;320.23;146.25;;;;;;;16.17;47.02;93749.41;4924263;29;20071;-90
2023/01/31 09:07:27;;;;;;;295.20;139.38;;;;;;;16.13;47.05;93754.34;4937826;29;20043;-90
2023/01/31 09:09:54;;;;;;;280.55;141.73;;;;;;;16.13;46.86;93762.50;4898703;28;20054;-90
2023/01/31 09:12:19;;;;;;;277.73;134.18;;;;;;;16.15;47.07;93746.41;4929085;28;20039;-88
2023/01/31 09:14:45;;;;;;;260.83;131.85;;;;;;;16.18;46.69;93759.06;4899262;29;20047;-90
2023/01/31 09:17:10;;;;;;;269.75;131.27;;;;;;;16.18;47.24;93764.53;4921285;28;20146;-89
2023/01/31 09:19:37;;;;;;;253.20;125.07;;;;;;;16.21;46.94;93767.03;4943545;28;20063;-90
2023/01/31 09:22:02;;;;;;;238.10;114.57;;;;;;;16.27;46.75;93754.16;4927677;28;20090;-92
2023/01/31 09:24:28;;;;;;;232.30;108.03;;;;;;;16.28;46.75;93755.66;4922441;28;20079;-90
2023/01/31 09:26:55;;;;;;;229.65;112.70;;;;;;;16.25;46.85;93742.97;4941951;28;20044;-91
2023/01/31 09:29:22;;;;;;;223.38;118.40;;;;;;;16.18;46.65;93740.00;4924841;28;20409;-92
2023/01/31 09:31:52;;;;;;;216.63;114.28;;;;;;;16.26;46.76;93754.63;4914039;28;20044;-87
2023/01/31 09:34:17;;;;;;;226.93;122.30;;;;;;;16.21;46.82;93747.94;4954954;28;20065;-88
2023/01/31 09:36:43;;;;;;;244.65;117.20;;;;;;;16.15;47.04;93751.88;4926897;28;20353;-87
2023/01/31 09:39:10;;;;;;;266.45;121.75;;;;;;;16.19;46.93;93744.94;4924608;28;20043;-84
2023/01/31 09:41:53;;;;;;;320.35;129.75;;;;;;;16.18;47.10;93745.44;4935536;28;20075;-90
2023/01/31 09:44:28;;;;;;;278.45;118.00;;;;;;;16.19;46.71;93736.03;4924060;28;20082;-85
2023/01/31 09:46:56;;;;;;;243.48;115.22;;;;;;;16.27;46.90;93745.22;4928303;28;20039;-88
2023/01/31 09:49:24;;;;;;;225.45;116.63;;;;;;;16.25;46.73;93742.97;4928704;28;20098;-92
2023/01/31 09:51:54;;;;;;;242.73;115.05;;;;;;;16.23;46.85;93744.72;4936814;28;20047;-85
2023/01/31 09:54:21;;;;;;;242.15;119.15;;;;;;;16.27;46.77;93740.50;4923521;28;20051;-84
2023/01/31 09:57:10;;;;;;;214.73;113.78;;;;;;;16.26;46.87;93735.53;4938289;28;20109;-85
2023/01/31 10:00:06;;;;;;;231.50;121.43;;;;;;;16.26;46.64;93741.75;4935268;28;20046;-87
2023/01/31 10:02:44;;;;;;;239.85;115.00;;;;;;;16.25;46.54;93731.31;4924865;29;20051;-87
2023/01/31 10:05:28;;;;;;;211.65;110.63;;;;;;;16.25;46.92;93734.78;4973883;28;20058;-86
2023/01/31 10:08:22;;;;;;;227.15;112.13;;;;;;;16.27;46.62;93729.59;4948543;28;20040;-85
2023/01/31 10:10:50;;;;;;;221.88;108.65;;;;;;;16.32;46.69;93736.31;4954570;28;20150;-84
2023/01/31 10:13:24;;;;;;;242.43;120.45;;;;;;;16.28;46.85;93727.63;4943854;28;20545;-86
2023/01/31 10:15:56;;;;;;;220.00;114.82;;;;;;;16.28;46.48;93719.44;4940381;28;20047;-87
2023/01/31 10:18:31;;;;;;;223.80;111.25;;;;;;;16.25;46.71;93712.97;4921883;28;20045;-85
2023/01/31 10:21:08;;;;;;;219.73;106.43;;;;;;;16.30;46.79;93720.44;4939768;28;20058;-86
2023/01/31 10:23:50;;;;;;;227.63;121.18;;;;;;;16.23;46.78;93722.91;4949915;28;20073;-86
2023/01/31 10:26:19;;;;;;;212.13;109.32;;;;;;;16.27;46.69;93721.41;4923755;28;20045;-87
2023/01/31 10:29:12;;;;;;;199.68;105.63;;;;;;;16.27;46.48;93713.25;4937917;29;20055;-87
2023/01/31 10:31:45;;;;;;;202.18;104.30;;;;;;;16.25;46.67;93725.88;4920831;28;20345;-84
2023/01/31 10:34:20;;;;;;;207.07;106.75;;;;;;;16.29;46.65;93731.84;4931119;28;20087;-86
2023/01/31 10:36:50;;;;;;;207.23;105.22;;;;;;;16.28;46.49;93709.28;4933094;28;20097;-85
2023/01/31 10:39:32;;;;;;;228.80;122.70;;;;;;;16.30;46.65;93722.44;4922518;28;20043;-87
2023/01/31 10:42:11;;;;;;;253.00;134.40;;;;;;;16.28;46.74;93717.47;4935287;29;20057;-89
2023/01/31 10:44:49;;;;;;;265.17;137.32;;;;;;;16.30;46.47;93712.25;4937711;28;20034;-90
2023/01/31 10:47:16;;;;;;;238.75;123.22;;;;;;;16.30;46.74;93706.81;4944240;28;20042;-87
2023/01/31 10:49:44;;;;;;;231.00;117.45;;;;;;;16.27;46.88;93707.03;4933036;28;20041;-87
2023/01/31 10:52:09;;;;;;;247.65;121.40;;;;;;;16.32;46.63;93717.22;4942613;28;20391;-86
2023/01/31 10:54:48;;;;;;;249.75;118.18;;;;;;;16.34;46.69;93714.75;4958166;28;20043;-87
2023/01/31 10:57:14;;;;;;;269.65;129.25;;;;;;;16.36;46.46;93702.13;4925614;28;20045;-89
2023/01/31 10:59:41;;;;;;;236.88;118.63;;;;;;;16.38;46.48;93686.00;4944455;28;20035;-89
2023/01/31 11:02:17;;;;;;;223.95;118.20;;;;;;;16.31;46.67;93693.91;4922334;28;20620;-86
2023/01/31 11:04:42;;;;;;;225.93;116.63;;;;;;;16.30;46.96;93704.06;4919363;29;20043;-88
2023/01/31 11:07:08;;;;;;;204.23;107.55;;;;;;;16.32;46.23;93707.06;4918602;28;20035;-88
2023/01/31 11:09:36;;;;;;;202.73;110.55;;;;;;;16.31;46.50;93697.38;4921669;28;20043;-89
2023/01/31 11:12:04;;;;;;;220.07;111.20;;;;;;;16.24;46.72;93691.66;4919866;28;20137;-88
2023/01/31 11:14:30;;;;;;;192.65;105.82;;;;;;;16.31;46.29;93691.19;4938322;28;20039;-88
2023/01/31 11:17:01;;;;;;;167.43;90.43;;;;;;;16.35;45.87;93697.16;4922347;28;20031;-88
2023/01/31 11:19:37;;;;;;;188.32;100.75;;;;;;;16.32;46.28;93690.69;4935583;28;20063;-88
2023/01/31 11:22:02;;;;;;;178.73;97.10;;;;;;;16.32;46.67;93684.50;4954018;28;20046;-88
2023/01/31 11:24:29;;;;;;;176.00;94.25;;;;;;;16.21;46.58;93687.94;4922541;28;20412;-86
2023/01/31 11:27:20;;;;;;;169.88;91.22;;;;;;;16.22;46.69;93683.22;4924658;28;20035;-85